Time;durP1;ratioP1;P1;durP2;ratioP2;P2;SDS_P1;SDS_P2;PMS_P1;PMS_P2;Temp;Humidity;BMP_temperature;BMP_pressure;BME280_temperature;BME280_humidity;BME280_pressure;Samples;Min_cycle;Max_cycle;Signal;HPM_P1;HPM_P2
2022/10/11 00:02:23;;;;;;;20.20;9.20;;;15.70;95.90;;;15.87;61.50;95586.22;5024493;28;20449;-57
2022/10/11 00:04:52;;;;;;;34.00;9.73;;;15.70;95.80;;;15.88;61.72;95585.22;5024941;28;20476;-56
2022/10/11 00:07:19;;;;;;;10.70;9.40;;;15.70;96.00;;;15.88;61.74;95588.72;5025558;28;20460;-56
2022/10/11 00:09:46;;;;;;;23.23;9.57;;;15.70;96.00;;;15.87;61.67;95602.13;5025181;28;20465;-56
2022/10/11 00:12:14;;;;;;;11.53;9.27;;;15.70;96.20;;;15.87;61.80;95596.81;5024535;28;20457;-55
2022/10/11 00:14:41;;;;;;;10.33;9.23;;;15.70;96.10;;;15.87;62.05;95588.88;5021545;28;20547;-56
2022/10/11 00:17:08;;;;;;;18.90;9.47;;;15.70;96.20;;;15.86;61.82;95589.84;5026296;28;21018;-56
2022/10/11 00:19:35;;;;;;;11.50;9.93;;;15.70;96.20;;;15.86;62.02;95590.66;5023455;28;20496;-56
2022/10/11 00:22:04;;;;;;;13.10;9.60;;;15.60;96.30;;;15.85;62.22;95593.47;5025062;28;20453;-56
2022/10/11 00:24:31;;;;;;;15.20;10.40;;;15.70;96.40;;;15.85;61.99;95585.53;5024829;28;20469;-56
2022/10/11 00:26:59;;;;;;;9.90;8.90;;;15.60;96.40;;;15.86;62.17;95585.38;5025187;28;20574;-53
2022/10/11 00:29:26;;;;;;;15.10;10.50;;;15.60;96.50;;;15.86;62.14;95587.19;5024874;28;20468;-56
2022/10/11 00:31:53;;;;;;;13.33;10.30;;;15.60;96.70;;;15.86;62.01;95580.06;5024740;28;20802;-56
2022/10/11 00:34:20;;;;;;;12.70;10.87;;;15.60;96.50;;;15.84;62.38;95582.03;5024813;28;20461;-56
2022/10/11 00:36:48;;;;;;;11.33;9.93;;;15.60;96.60;;;15.85;62.10;95590.81;5024797;28;20453;-56
2022/10/11 00:39:17;;;;;;;24.13;15.90;;;15.60;96.60;;;15.82;62.28;95577.88;5027072;28;20873;-55
2022/10/11 00:41:44;;;;;;;17.83;14.03;;;15.60;96.70;;;15.80;62.48;95579.84;5028656;28;20448;-56
2022/10/11 00:44:16;;;;;;;22.67;10.13;;;15.60;96.90;;;15.79;62.31;95578.22;5028781;28;20453;-54
2022/10/11 00:46:45;;;;;;;15.80;11.10;;;15.60;96.90;;;15.76;62.82;95569.53;5025703;28;20550;-54
2022/10/11 00:49:21;;;;;;;17.40;11.50;;;15.60;97.20;;;15.75;63.04;95574.97;5028707;28;20452;-56
2022/10/11 00:51:52;;;;;;;16.27;11.83;;;15.50;97.10;;;15.73;62.77;95574.31;5025711;28;20949;-56
2022/10/11 00:54:23;;;;;;;17.37;10.97;;;15.50;97.10;;;15.71;62.77;95574.47;5028312;28;20456;-54
2022/10/11 00:56:53;;;;;;;15.33;12.00;;;15.50;97.10;;;15.67;63.03;95581.06;5025029;28;20480;-57
2022/10/11 00:59:24;;;;;;;19.90;10.80;;;15.50;97.10;;;15.64;63.02;95578.72;5026939;28;20488;-56
2022/10/11 01:01:51;;;;;;;14.47;10.53;;;15.40;97.10;;;15.63;63.20;95585.03;5028538;28;20441;-56
2022/10/11 01:04:18;;;;;;;20.20;11.87;;;15.40;97.50;;;15.63;63.06;95579.72;5028786;28;20800;-56
2022/10/11 01:06:45;;;;;;;24.03;10.70;;;15.40;97.50;;;15.63;63.25;95581.50;5028426;28;20464;-56
2022/10/11 01:09:13;;;;;;;16.93;11.60;;;15.40;97.80;;;15.63;63.26;95581.50;5028628;28;20464;-55
2022/10/11 01:11:42;;;;;;;16.03;11.00;;;15.40;97.60;;;15.63;63.25;95585.03;5028194;28;21001;-58
2022/10/11 01:14:36;;;;;;;17.07;11.10;;;15.40;97.90;;;15.64;63.55;95585.84;5028655;28;20453;-56
2022/10/11 01:17:09;;;;;;;23.33;11.60;;;15.40;97.90;;;15.65;63.44;95582.22;5027798;28;20449;-61
2022/10/11 01:19:55;;;;;;;18.13;11.47;;;15.40;98.00;;;15.64;63.78;95570.75;5024999;28;20685;-56
2022/10/11 01:22:38;;;;;;;16.70;10.43;;;15.40;98.00;;;15.63;63.63;95578.88;5025485;28;20451;-58
2022/10/11 01:25:17;;;;;;;16.83;12.17;;;15.40;98.10;;;15.63;63.58;95579.72;5026984;28;20487;-54
2022/10/11 01:28:13;;;;;;;25.33;15.00;;;15.40;98.30;;;15.59;63.62;95573.03;5027584;28;20459;-56
2022/10/11 01:30:42;;;;;;;16.53;12.27;;;15.40;98.20;;;15.53;63.66;95573.66;5025400;28;20543;-56
2022/10/11 01:33:20;;;;;;;13.30;11.40;;;15.30;98.40;;;15.49;64.10;95567.84;5028001;28;20456;-57
2022/10/11 01:35:56;;;;;;;24.20;12.80;;;15.30;98.50;;;15.47;64.42;95568.97;5025109;28;20473;-56
2022/10/11 01:38:27;;;;;;;16.10;12.33;;;15.30;98.80;;;15.45;64.29;95573.59;5028035;28;20829;-55
2022/10/11 01:40:56;;;;;;;19.87;12.47;;;15.20;98.70;;;15.44;64.20;95571.91;5027996;28;20472;-57
2022/10/11 01:43:24;;;;;;;18.03;13.03;;;15.20;98.70;;;15.40;64.25;95577.53;5027841;28;20472;-56
2022/10/11 01:45:54;;;;;;;18.23;12.83;;;15.20;98.90;;;15.38;64.11;95570.69;5024269;28;20480;-57
2022/10/11 01:48:21;;;;;;;24.23;13.43;;;15.10;98.70;;;15.34;64.55;95572.00;5027590;28;20494;-58
2022/10/11 01:50:50;;;;;;;18.87;13.33;;;15.10;99.10;;;15.30;64.55;95573.28;5026789;28;20552;-55
2022/10/11 01:53:50;;;;;;;26.33;13.70;;;15.10;99.20;;;15.29;65.12;95566.31;5027580;28;20953;-56
2022/10/11 01:56:29;;;;;;;19.53;13.00;;;15.10;99.30;;;15.26;65.09;95572.78;5026328;28;20844;-56
2022/10/11 01:59:08;;;;;;;21.13;12.77;;;15.00;99.40;;;15.23;65.29;95570.41;5024745;28;21067;-58
2022/10/11 02:01:44;;;;;;;19.70;14.53;;;15.00;99.50;;;15.19;64.90;95567.22;5023206;28;20457;-56
2022/10/11 02:04:15;;;;;;;22.60;13.60;;;15.00;99.50;;;15.19;64.75;95575.16;5024559;28;20482;-55
2022/10/11 02:06:48;;;;;;;21.23;14.10;;;15.00;99.50;;;15.16;65.30;95564.03;5022134;28;20445;-57
2022/10/11 02:09:18;;;;;;;20.93;14.30;;;15.00;99.50;;;15.13;65.17;95567.81;5025683;28;20452;-56
2022/10/11 02:11:45;;;;;;;35.13;16.30;;;14.90;99.80;;;15.09;65.29;95561.19;5021332;28;20467;-55
2022/10/11 02:14:13;;;;;;;22.53;15.83;;;14.90;99.60;;;15.05;65.78;95571.22;5025296;28;20444;-56
2022/10/11 02:16:44;;;;;;;20.47;14.53;;;14.90;99.90;;;15.02;65.58;95563.56;5025272;28;20471;-56
2022/10/11 02:19:13;;;;;;;24.40;13.80;;;14.80;99.80;;;14.99;65.93;95571.00;5022179;28;20469;-57
2022/10/11 02:21:41;;;;;;;20.50;14.97;;;14.80;99.90;;;14.94;66.21;95566.16;5024900;28;20457;-56
2022/10/11 02:24:13;;;;;;;22.53;15.60;;;14.80;99.90;;;14.88;66.44;95562.28;5024544;28;21031;-55
2022/10/11 02:26:41;;;;;;;24.53;15.37;;;14.70;99.90;;;14.84;66.28;95568.00;5025158;28;20461;-57
2022/10/11 02:29:09;;;;;;;18.80;14.67;;;14.70;99.90;;;14.82;66.39;95559.41;5025264;28;20626;-56
2022/10/11 02:31:37;;;;;;;28.87;16.10;;;14.60;99.90;;;14.79;66.70;95563.16;5024688;28;20518;-57
2022/10/11 02:34:12;;;;;;;23.23;14.73;;;14.60;99.90;;;14.77;66.62;95559.84;5025699;28;20479;-57
2022/10/11 02:36:53;;;;;;;29.30;16.20;;;14.60;99.90;;;14.74;66.70;95557.50;5025944;28;20449;-55
2022/10/11 02:39:24;;;;;;;24.87;17.73;;;14.60;99.90;;;14.73;66.67;95552.34;5026382;28;20480;-55
2022/10/11 02:41:52;;;;;;;20.67;15.70;;;14.50;99.90;;;14.72;66.62;95553.31;5023444;28;20449;-55
2022/10/11 02:44:23;;;;;;;21.23;16.60;;;14.50;99.90;;;14.70;66.65;95554.31;5029174;28;20448;-56
2022/10/11 02:46:51;;;;;;;24.73;16.03;;;14.50;99.90;;;14.68;66.68;95553.59;5026539;28;20453;-58
2022/10/11 02:49:19;;;;;;;23.83;16.17;;;14.50;99.90;;;14.67;67.01;95557.25;5026251;28;20452;-57
2022/10/11 02:51:47;;;;;;;25.87;16.83;;;14.50;99.90;;;14.68;66.61;95550.13;5026255;28;20954;-53
2022/10/11 02:54:14;;;;;;;22.03;16.00;;;14.50;99.90;;;14.69;66.60;95547.34;5021983;28;20459;-55
2022/10/11 02:56:41;;;;;;;33.83;15.23;;;14.50;99.90;;;14.67;66.56;95538.72;5022617;28;20461;-57
2022/10/11 02:59:08;;;;;;;25.13;18.37;;;14.50;99.90;;;14.67;66.68;95541.38;5025389;28;20492;-57
2022/10/11 03:01:36;;;;;;;28.43;17.80;;;14.50;99.90;;;14.67;66.85;95548.47;5024454;28;21055;-56
2022/10/11 03:04:03;;;;;;;24.17;18.10;;;14.50;99.90;;;14.66;66.79;95542.34;5024800;28;20495;-55
2022/10/11 03:06:32;;;;;;;31.90;17.87;;;14.50;99.90;;;14.66;67.25;95547.63;5025389;28;20465;-56
2022/10/11 03:08:59;;;;;;;22.73;15.23;;;14.50;99.90;;;14.61;66.98;95536.66;5026286;28;20452;-57
2022/10/11 03:11:26;;;;;;;25.90;18.10;;;14.50;99.90;;;14.65;67.02;95540.66;5022989;28;20686;-55
2022/10/11 03:13:53;;;;;;;25.27;18.00;;;14.50;99.90;;;14.65;67.00;95534.53;5025587;28;20930;-57
2022/10/11 03:16:21;;;;;;;29.17;18.63;;;14.50;99.90;;;14.64;67.08;95541.66;5025488;28;20993;-56
2022/10/11 03:18:48;;;;;;;23.87;17.70;;;14.50;99.90;;;14.65;67.15;95548.59;5021243;28;20487;-56
2022/10/11 03:21:15;;;;;;;27.83;19.40;;;14.50;99.90;;;14.64;66.79;95546.97;5024913;28;20484;-56
2022/10/11 03:23:44;;;;;;;35.23;20.00;;;14.50;99.90;;;14.65;67.38;95539.84;5024973;28;20465;-57
2022/10/11 03:26:11;;;;;;;23.40;17.47;;;14.50;99.90;;;14.66;67.38;95542.34;5024185;28;20488;-55
2022/10/11 03:28:38;;;;;;;26.83;19.03;;;14.50;99.90;;;14.69;67.18;95538.56;5025010;28;20500;-58
2022/10/11 03:31:06;;;;;;;23.57;17.80;;;14.50;99.90;;;14.72;66.82;95542.72;5024560;28;20530;-57
2022/10/11 03:33:33;;;;;;;23.47;17.83;;;14.50;99.90;;;14.71;67.29;95547.19;5024567;28;20465;-57
2022/10/11 03:36:00;;;;;;;24.93;17.07;;;14.50;99.90;;;14.71;66.88;95539.25;5025107;28;20484;-56
2022/10/11 03:38:28;;;;;;;32.00;19.90;;;14.50;99.90;;;14.68;67.58;95540.38;5025382;28;20465;-56
2022/10/11 03:40:56;;;;;;;24.87;18.67;;;14.50;99.90;;;14.69;66.79;95539.41;5024718;28;20600;-55
2022/10/11 03:43:24;;;;;;;29.50;17.30;;;14.50;99.90;;;14.71;66.90;95531.31;5025349;28;20449;-57
2022/10/11 03:45:51;;;;;;;32.27;22.27;;;14.50;99.90;;;14.73;66.89;95528.50;5025748;28;20468;-55
2022/10/11 03:48:19;;;;;;;64.07;34.93;;;14.50;99.90;;;14.72;67.76;95530.34;5025711;28;21020;-54
2022/10/11 03:50:46;;;;;;;73.83;25.30;;;14.50;99.90;;;14.72;67.05;95526.84;5025742;28;21015;-57
2022/10/11 03:53:14;;;;;;;29.93;19.13;;;14.50;99.90;;;14.72;67.26;95526.84;5025616;28;20455;-57
2022/10/11 03:55:41;;;;;;;32.63;19.63;;;14.50;99.90;;;14.73;67.22;95525.84;5024883;28;20503;-56
2022/10/11 03:58:10;;;;;;;29.13;19.90;;;14.50;99.90;;;14.73;67.47;95531.16;5024385;28;20770;-56
2022/10/11 04:00:37;;;;;;;37.20;18.47;;;14.50;99.90;;;14.77;67.62;95524.59;5024207;28;20504;-57
2022/10/11 04:03:04;;;;;;;28.70;19.77;;;14.50;99.90;;;14.80;67.69;95529.59;5022704;28;20464;-56
2022/10/11 04:05:32;;;;;;;44.80;20.57;;;14.60;99.90;;;14.81;67.63;95528.59;5022460;28;20863;-56
2022/10/11 04:07:59;;;;;;;31.63;19.77;;;14.60;99.90;;;14.83;67.76;95531.94;5022548;28;20488;-54
2022/10/11 04:10:27;;;;;;;30.23;20.27;;;14.60;99.90;;;14.85;67.64;95532.59;5023629;28;20515;-56
2022/10/11 04:12:54;;;;;;;29.53;20.23;;;14.60;99.90;;;14.86;67.66;95534.28;5028679;28;20448;-56
2022/10/11 04:15:23;;;;;;;31.67;18.20;;;14.60;99.90;;;14.86;67.60;95534.28;5028584;28;20470;-55
2022/10/11 04:17:51;;;;;;;32.10;19.90;;;14.60;99.90;;;14.87;67.54;95534.13;5029329;28;20511;-56
2022/10/11 04:20:19;;;;;;;27.67;17.87;;;14.60;99.90;;;14.87;67.61;95528.00;5028835;28;20492;-57
2022/10/11 04:22:46;;;;;;;34.43;19.53;;;14.70;99.90;;;14.90;67.65;95529.50;5028566;28;20464;-58
2022/10/11 04:25:13;;;;;;;34.93;20.60;;;14.70;99.90;;;14.91;67.58;95531.19;5027068;28;20472;-55
2022/10/11 04:27:41;;;;;;;34.70;19.07;;;14.70;99.90;;;14.92;67.71;95531.03;5028555;28;20821;-56
2022/10/11 04:30:11;;;;;;;27.17;19.10;;;14.70;99.90;;;14.94;67.55;95526.41;5027347;28;20480;-55
2022/10/11 04:32:40;;;;;;;29.50;20.47;;;14.70;99.90;;;14.94;67.58;95531.72;5027488;28;20989;-56
2022/10/11 04:35:08;;;;;;;28.23;19.47;;;14.70;99.90;;;14.95;67.80;95532.53;5028118;28;20476;-56
2022/10/11 04:37:35;;;;;;;28.53;18.77;;;14.70;99.90;;;14.95;67.37;95528.09;5027697;28;20571;-56
2022/10/11 04:40:03;;;;;;;52.83;20.43;;;14.70;99.90;;;14.96;68.00;95537.69;5025510;28;20492;-55
2022/10/11 04:42:30;;;;;;;41.17;20.97;;;14.70;99.90;;;14.95;67.74;95530.75;5032051;28;20445;-56
2022/10/11 04:44:57;;;;;;;34.83;20.07;;;14.70;99.90;;;14.96;67.67;95537.69;5028995;28;20538;-55
2022/10/11 04:47:25;;;;;;;30.03;20.80;;;14.70;99.90;;;14.98;67.78;95540.19;5028948;28;20588;-57
2022/10/11 04:49:54;;;;;;;34.90;20.70;;;14.70;99.90;;;14.99;67.60;95534.72;5028419;28;20479;-57
2022/10/11 04:52:21;;;;;;;38.17;21.07;;;14.70;99.90;;;15.00;67.95;95532.94;5026645;28;20501;-56
2022/10/11 04:54:49;;;;;;;32.43;22.30;;;14.80;99.90;;;15.00;67.77;95541.72;5027448;28;20562;-57
2022/10/11 04:57:16;;;;;;;30.00;21.40;;;14.80;99.90;;;15.00;67.82;95535.59;5030813;28;20451;-56
2022/10/11 04:59:44;;;;;;;34.23;21.47;;;14.70;99.90;;;15.01;68.08;95529.28;5028135;28;20492;-56
2022/10/11 05:02:11;;;;;;;36.97;21.07;;;14.80;99.90;;;15.03;67.72;95536.09;5028081;28;20464;-56
2022/10/11 05:04:38;;;;;;;29.23;19.73;;;14.80;99.90;;;15.04;67.72;95535.13;5028057;28;20480;-56
2022/10/11 05:07:07;;;;;;;29.80;20.30;;;14.80;99.90;;;15.03;67.68;95530.81;5028142;28;20453;-56
2022/10/11 05:09:34;;;;;;;44.40;21.97;;;14.80;99.90;;;15.02;67.93;95531.78;5027781;28;20490;-55
2022/10/11 05:12:02;;;;;;;34.63;19.60;;;14.80;99.90;;;15.02;67.82;95528.31;5027794;28;20990;-53
2022/10/11 05:14:29;;;;;;;39.80;21.87;;;14.70;99.90;;;15.01;67.91;95534.59;5024193;28;20472;-56
2022/10/11 05:16:56;;;;;;;38.97;22.70;;;14.80;99.90;;;15.00;68.03;95536.41;5028603;28;20463;-57
2022/10/11 05:19:24;;;;;;;37.10;20.57;;;14.70;99.90;;;15.00;67.73;95544.34;5028956;28;20557;-55
2022/10/11 05:21:51;;;;;;;37.33;21.60;;;14.80;99.90;;;14.99;68.20;95534.72;5027615;28;20460;-57
2022/10/11 05:24:20;;;;;;;44.13;21.90;;;14.80;99.90;;;14.94;68.65;95526.41;5025955;28;20457;-56
2022/10/11 05:26:47;;;;;;;38.50;22.80;;;14.80;99.90;;;14.98;68.44;95538.38;5026237;28;20464;-55
2022/10/11 05:29:14;;;;;;;48.10;21.37;;;14.70;99.90;;;14.99;68.44;95542.69;5025155;28;20544;-56
2022/10/11 05:31:42;;;;;;;36.60;21.73;;;14.80;99.90;;;15.01;68.69;95539.88;5022461;28;20561;-54
2022/10/11 05:34:09;;;;;;;35.90;20.93;;;14.80;99.90;;;15.04;68.23;95545.72;5026242;28;20975;-55
2022/10/11 05:36:36;;;;;;;35.17;21.30;;;14.80;99.90;;;15.04;68.38;95558.97;5025078;28;20468;-54
2022/10/11 05:39:04;;;;;;;40.10;23.60;;;14.80;99.90;;;15.05;68.67;95565.91;5023585;28;20510;-55
2022/10/11 05:41:32;;;;;;;48.90;23.07;;;14.80;99.90;;;15.09;68.82;95568.28;5026587;28;21095;-56
2022/10/11 05:44:00;;;;;;;47.23;22.60;;;14.90;99.90;;;15.12;68.58;95567.97;5026823;28;20467;-54
2022/10/11 05:46:27;;;;;;;35.50;21.40;;;14.90;99.90;;;15.16;68.69;95569.34;5027421;28;20461;-57
2022/10/11 05:48:54;;;;;;;32.17;21.23;;;14.90;99.90;;;15.26;68.48;95575.41;5025989;28;20479;-56
2022/10/11 05:51:21;;;;;;;40.67;20.20;;;15.00;99.90;;;15.35;68.30;95573.66;5022736;28;20890;-56
2022/10/11 05:53:49;;;;;;;33.13;19.50;;;15.10;99.90;;;15.48;68.34;95560.03;5024327;28;20819;-56
2022/10/11 05:56:19;;;;;;;40.40;19.90;;;15.20;99.90;;;15.62;68.13;95546.22;5023905;28;20480;-56
2022/10/11 05:58:48;;;;;;;31.50;20.30;;;15.30;99.90;;;15.76;68.08;95542.19;5024945;28;20567;-58
2022/10/11 06:01:20;;;;;;;42.77;23.57;;;15.50;99.90;;;15.89;67.30;95534.66;5024842;28;20492;-58
2022/10/11 06:03:47;;;;;;;42.17;21.27;;;15.60;99.90;;;16.03;67.49;95548.34;5024344;28;20985;-57
2022/10/11 06:06:16;;;;;;;36.73;22.07;;;15.70;99.90;;;16.19;67.08;95556.41;5026118;28;20472;-55
2022/10/11 06:08:43;;;;;;;36.63;21.47;;;15.80;99.90;;;16.35;66.60;95553.00;5025404;28;20445;-56
2022/10/11 06:11:13;;;;;;;38.50;20.43;;;16.00;99.90;;;16.43;66.19;95549.53;5026467;28;20480;-57
2022/10/11 06:13:41;;;;;;;56.63;22.67;;;16.10;99.90;;;16.43;65.90;95545.06;5026196;28;20519;-55
2022/10/11 06:16:09;;;;;;;33.80;21.03;;;16.10;99.90;;;16.40;65.77;95548.03;5026991;28;20583;-57
2022/10/11 06:18:37;;;;;;;34.20;21.03;;;16.10;99.90;;;16.33;66.11;95539.06;5024517;28;20460;-55
2022/10/11 06:21:04;;;;;;;38.80;19.87;;;16.10;99.90;;;16.27;65.99;95542.34;5024748;28;20488;-57
2022/10/11 06:23:32;;;;;;;34.43;20.70;;;16.10;99.90;;;16.19;66.17;95537.81;5024913;28;20465;-56
2022/10/11 06:25:59;;;;;;;32.30;19.73;;;16.00;99.90;;;16.13;66.23;95546.41;5024183;28;20481;-57
2022/10/11 06:28:27;;;;;;;38.57;20.27;;;15.90;99.90;;;16.04;66.25;95542.06;5024241;28;20831;-54
2022/10/11 06:30:55;;;;;;;35.20;19.23;;;15.80;99.90;;;15.98;66.52;95546.16;5026289;28;20472;-56
2022/10/11 06:33:23;;;;;;;34.77;18.90;;;15.80;99.90;;;15.90;66.50;95556.72;5022131;28;20457;-57
2022/10/11 06:35:53;;;;;;;41.23;18.90;;;15.70;99.90;;;15.83;66.54;95556.50;5020876;28;20476;-56
2022/10/11 06:38:20;;;;;;;39.67;20.83;;;15.60;99.90;;;15.78;66.81;95558.78;5022746;28;20519;-54
2022/10/11 06:40:47;;;;;;;32.00;20.00;;;15.60;99.90;;;15.72;67.12;95564.69;5022539;28;20496;-56
2022/10/11 06:43:15;;;;;;;37.37;20.63;;;15.50;99.90;;;15.67;67.01;95572.28;5024289;28;20522;-57
2022/10/11 06:45:42;;;;;;;33.73;19.93;;;15.50;99.90;;;15.64;67.26;95567.28;5022892;28;20485;-56
2022/10/11 06:48:09;;;;;;;34.23;20.10;;;15.40;99.90;;;15.62;67.56;95571.91;5023462;28;20523;-57
2022/10/11 06:50:39;;;;;;;31.97;19.73;;;15.40;99.90;;;15.62;67.31;95574.56;5022969;28;20510;-56
2022/10/11 06:53:06;;;;;;;34.47;20.30;;;15.40;99.90;;;15.62;67.69;95578.03;5023194;28;20460;-53
2022/10/11 06:55:34;;;;;;;44.83;22.23;;;15.40;99.90;;;15.65;67.88;95580.38;5024039;28;20491;-56
2022/10/11 06:58:01;;;;;;;33.30;19.77;;;15.40;99.90;;;15.64;67.77;95589.31;5022598;28;20459;-55
2022/10/11 07:00:29;;;;;;;33.90;19.40;;;15.40;99.90;;;15.64;67.79;95585.84;5024282;28;21029;-56
2022/10/11 07:02:56;;;;;;;32.83;18.70;;;15.40;99.90;;;15.65;67.85;95583.03;5022979;28;20457;-55
2022/10/11 07:05:23;;;;;;;31.90;19.00;;;15.40;99.90;;;15.67;67.91;95575.75;5023494;28;20481;-54
2022/10/11 07:07:52;;;;;;;37.33;19.87;;;15.40;99.90;;;15.74;67.70;95582.13;5021903;28;20471;-55
2022/10/11 07:10:19;;;;;;;43.63;20.00;;;15.50;99.90;;;15.81;67.57;95587.66;5024149;28;20847;-54
2022/10/11 07:12:47;;;;;;;36.03;19.23;;;15.60;99.90;;;15.87;67.48;95581.72;5025663;28;20452;-56
2022/10/11 07:15:14;;;;;;;32.57;18.50;;;15.60;99.90;;;15.92;66.88;95579.44;5025327;28;20579;-55
2022/10/11 07:17:42;;;;;;;39.20;17.87;;;15.60;99.90;;;15.91;67.26;95566.31;5024644;28;20459;-54
2022/10/11 07:20:11;;;;;;;40.77;18.27;;;15.70;99.90;;;15.91;67.05;95561.03;5025243;28;20496;-55
2022/10/11 07:22:38;;;;;;;43.13;18.37;;;15.70;99.90;;;15.90;67.11;95560.19;5022949;28;20807;-56
2022/10/11 07:25:08;;;;;;;47.23;20.30;;;15.70;99.90;;;15.96;67.13;95558.75;5023522;28;20481;-56
2022/10/11 07:27:35;;;;;;;33.03;18.37;;;15.70;99.90;;;16.02;67.31;95571.41;5025090;28;20449;-55
2022/10/11 07:30:03;;;;;;;37.43;20.43;;;15.70;99.90;;;16.08;66.60;95581.38;5024989;28;20479;-53
2022/10/11 07:32:30;;;;;;;28.10;16.73;;;15.80;99.90;;;16.11;66.64;95588.19;5024439;28;20875;-55
2022/10/11 07:34:57;;;;;;;34.43;17.93;;;15.90;99.90;;;16.10;66.60;95592.66;5023031;28;20476;-58
2022/10/11 07:37:25;;;;;;;35.27;16.60;;;15.80;99.90;;;16.10;66.60;95592.66;5017580;28;20456;-56
2022/10/11 07:39:52;;;;;;;33.23;17.67;;;15.90;99.90;;;16.09;66.47;95591.00;5024493;28;20573;-57
2022/10/11 07:42:21;;;;;;;33.33;15.57;;;15.90;99.90;;;16.07;66.32;95586.84;5025289;28;20444;-56
2022/10/11 07:44:48;;;;;;;32.53;16.53;;;15.80;99.90;;;16.08;66.64;95584.03;5021359;28;20473;-58
2022/10/11 07:47:15;;;;;;;37.83;19.53;;;15.90;99.90;;;16.13;66.55;95580.91;5023976;28;20460;-56
2022/10/11 07:49:43;;;;;;;30.93;17.43;;;15.90;99.90;;;16.22;66.33;95579.13;5024768;28;20480;-57
2022/10/11 07:52:10;;;;;;;31.00;18.47;;;15.90;99.90;;;16.29;65.89;95586.31;5025368;28;20472;-56
2022/10/11 07:54:38;;;;;;;40.83;16.83;;;16.00;99.90;;;16.37;65.68;95593.47;5025345;28;20465;-57
2022/10/11 07:57:06;;;;;;;31.53;16.17;;;16.10;99.90;;;16.43;65.51;95592.84;5023229;28;20973;-54
2022/10/11 07:59:34;;;;;;;25.93;16.17;;;16.20;99.90;;;16.48;65.80;95585.25;5024047;28;20503;-55
2022/10/11 08:02:02;;;;;;;42.10;16.90;;;16.20;99.90;;;16.54;65.74;95588.25;5024270;28;20527;-54
2022/10/11 08:04:29;;;;;;;30.90;17.07;;;16.20;99.90;;;16.58;65.34;95586.97;5024134;28;20489;-56
2022/10/11 08:06:56;;;;;;;30.23;16.17;;;16.30;99.90;;;16.59;65.36;95581.50;5024157;28;20456;-55
2022/10/11 08:09:54;;;;;;;35.50;16.57;;;16.30;99.90;;;16.63;64.77;95574.03;5020406;28;20488;-52
2022/10/11 08:12:21;;;;;;;37.47;17.17;;;16.40;99.90;;;16.61;64.81;95574.19;5024887;28;20464;-56
2022/10/11 08:14:49;;;;;;;40.43;17.57;;;16.40;99.90;;;16.61;64.49;95579.50;5024899;28;20476;-56
2022/10/11 08:17:17;;;;;;;34.27;16.93;;;16.40;99.90;;;16.65;64.65;95585.31;5021474;28;20973;-53
2022/10/11 08:19:44;;;;;;;35.63;18.00;;;16.40;99.90;;;16.68;64.79;95579.69;5025085;28;20841;-55
2022/10/11 08:22:11;;;;;;;29.10;16.63;;;16.40;99.90;;;16.71;64.67;95582.03;5024517;28;20499;-54
2022/10/11 08:24:39;;;;;;;28.40;16.00;;;16.40;99.90;;;16.74;64.64;95591.50;5024525;28;20480;-53
2022/10/11 08:27:06;;;;;;;25.80;16.50;;;16.50;99.90;;;16.75;64.55;95596.66;5024492;28;20463;-56
2022/10/11 08:29:33;;;;;;;32.20;15.67;;;16.50;99.90;;;16.75;64.41;95596.66;5024093;28;20460;-55
2022/10/11 08:32:02;;;;;;;29.23;15.30;;;16.50;99.90;;;16.77;64.37;95599.97;5019869;28;20463;-56
2022/10/11 08:34:29;;;;;;;31.67;17.37;;;16.50;99.90;;;16.75;64.22;95596.66;5023877;28;20534;-57
2022/10/11 08:36:57;;;;;;;28.53;15.47;;;16.50;99.90;;;16.76;64.34;95592.16;5024444;28;20463;-57
2022/10/11 08:39:24;;;;;;;27.60;16.00;;;16.50;99.90;;;16.78;64.22;95590.22;5021746;28;20465;-55
2022/10/11 08:41:54;;;;;;;26.00;17.00;;;16.50;99.90;;;16.79;64.50;95592.69;5024669;28;20503;-55
2022/10/11 08:44:34;;;;;;;26.40;15.73;;;16.50;99.90;;;16.83;64.20;95582.56;5023174;28;20460;-56
2022/10/11 08:47:08;;;;;;;26.73;15.03;;;16.60;99.90;;;16.85;63.92;95588.53;5022192;28;20532;-56
2022/10/11 08:49:36;;;;;;;26.57;17.07;;;16.60;99.90;;;16.91;63.71;95598.56;5022352;28;20541;-58
2022/10/11 08:52:05;;;;;;;27.57;16.07;;;16.60;99.90;;;16.90;63.59;95596.06;5022617;28;20448;-53
2022/10/11 08:54:41;;;;;;;48.20;18.97;;;16.60;99.80;;;16.92;63.99;95594.09;5021291;28;20472;-56
2022/10/11 08:57:13;;;;;;;30.80;16.30;;;16.70;99.90;;;16.93;63.97;95593.09;5024054;28;20495;-55
2022/10/11 08:59:46;;;;;;;33.27;15.73;;;16.70;99.80;;;16.97;63.86;95597.09;5025795;28;20479;-55
2022/10/11 09:02:24;;;;;;;24.40;15.23;;;16.70;99.70;;;17.00;63.58;95596.78;5026847;28;20476;-56
2022/10/11 09:04:53;;;;;;;31.67;17.50;;;16.70;99.80;;;17.03;63.29;95589.31;5022014;28;21057;-56
2022/10/11 09:07:30;;;;;;;35.70;17.87;;;16.80;99.70;;;17.08;63.39;95586.16;5022636;28;20464;-56
2022/10/11 09:10:23;;;;;;;24.40;15.20;;;16.80;99.90;;;17.10;62.78;95586.84;5021769;28;20934;-55
2022/10/11 09:12:55;;;;;;;27.73;15.80;;;16.80;99.50;;;17.12;62.88;95587.50;5025628;28;20948;-56
2022/10/11 09:15:29;;;;;;;23.60;15.60;;;16.90;99.50;;;17.13;63.04;95583.84;5027588;28;20480;-56
2022/10/11 09:18:41;;;;;;;27.00;15.50;;;16.90;99.40;;;17.19;63.17;95580.53;5026931;28;21094;-54
2022/10/11 09:21:23;;;;;;;34.33;16.30;;;16.90;99.30;;;17.28;63.40;95581.38;4957307;28;20495;-56
2022/10/11 09:24:20;;;;;;;22.07;14.40;;;17.00;99.60;;;17.39;62.87;95582.88;5024658;28;20877;-56
2022/10/11 09:26:54;;;;;;;22.90;14.30;;;17.10;99.20;;;17.49;62.29;95577.41;5027288;28;20503;-53
2022/10/11 09:29:29;;;;;;;27.43;15.77;;;17.20;99.00;;;17.57;61.86;95585.41;5024203;28;20448;-57
2022/10/11 09:31:56;;;;;;;27.27;15.97;;;17.30;98.80;;;17.63;62.28;95584.75;5027272;28;20455;-56
2022/10/11 09:34:31;;;;;;;21.33;13.13;;;17.40;98.70;;;17.71;62.00;95581.25;5026149;28;20469;-57
2022/10/11 09:37:03;;;;;;;28.13;14.90;;;17.40;98.50;;;17.81;61.80;95581.09;5027991;28;20454;-57
2022/10/11 09:39:32;;;;;;;23.70;13.53;;;17.50;98.40;;;17.92;61.54;95570.13;5027659;28;20472;-56
2022/10/11 09:42:01;;;;;;;24.40;15.77;;;17.60;98.20;;;17.99;60.94;95564.97;5027577;28;20554;-56
2022/10/11 09:44:30;;;;;;;22.03;15.20;;;17.70;97.90;;;18.06;60.86;95568.59;5027400;28;20477;-56
2022/10/11 09:46:58;;;;;;;23.80;14.63;;;17.80;97.90;;;18.24;60.95;95566.56;5024371;28;20459;-55
2022/10/11 09:49:31;;;;;;;22.60;14.70;;;17.90;98.00;;;18.51;60.87;95567.16;5027293;28;20512;-54
2022/10/11 09:52:00;;;;;;;24.33;14.53;;;18.10;97.90;;;18.78;59.52;95562.41;5027580;28;20445;-57
2022/10/11 09:54:39;;;;;;;29.93;15.90;;;18.40;97.50;;;19.04;59.09;95561.28;5025307;28;20488;-56
2022/10/11 09:57:06;;;;;;;24.73;15.20;;;18.70;97.20;;;19.34;58.80;95556.94;5027626;28;20445;-55
2022/10/11 09:59:34;;;;;;;18.57;13.63;;;19.00;97.00;;;19.70;58.41;95557.19;5027184;28;20485;-56
2022/10/11 10:02:22;;;;;;;23.30;14.73;;;19.30;96.60;;;20.09;57.10;95559.84;5027020;28;20497;-56
2022/10/11 10:05:14;;;;;;;24.57;15.63;;;19.60;95.80;;;20.37;56.83;95558.25;5025462;28;20469;-55
2022/10/11 10:07:57;;;;;;;23.43;14.60;;;19.90;95.60;;;20.59;55.69;95566.34;5026846;28;20477;-56
2022/10/11 10:10:32;;;;;;;27.80;14.33;;;20.10;94.60;;;20.69;55.86;95556.22;5026090;28;20495;-57
2022/10/11 10:13:01;;;;;;;20.63;13.27;;;20.30;94.40;;;20.78;55.71;95549.75;5024991;28;20467;-56
2022/10/11 10:15:30;;;;;;;24.17;14.70;;;20.40;94.10;;;20.88;54.85;95549.47;5026925;28;20473;-57
2022/10/11 10:17:57;;;;;;;22.47;14.83;;;20.50;93.50;;;20.94;54.85;95543.38;5023592;28;20536;-57